Atlantic City International Airport Atlantic City US
ICAO: KACY
IATA: ACY
Category: Medium
Scheduled Services: Yes

Elevation: 75 ft
TransAlt. 18000 ft.

Airport Communications:
APP/DEP:38.55
APP/DEP:124.6
ATIS:108.6
CLNC DEL:127.85
GND:121.9
ANG OPS:138.12
MILLVILLE RDO:122.55
TWR:120.3

KACY Zoom In..

If you have problems with the map follow the link
https://www.worldairports.se/pages/airport.php?
ICAO=KACY

Runways:

(A) RW 04 length 6144 ft width 150 ft
---- / hdg 38

(B) RW 13 length 10000 ft width 150 ft
ILS 109.10 / hdg 128

(C) RW 22 length 6144 ft width 150 ft
---- / hdg 218

(D) RW 31 length 10000 ft width 150 ft
ILS 109.10 / hdg 308

Location; KACY
Day. 18 / Time. 23.54 Zulu
* Altimeter: 30.38
* Temperature: 08° c. 46.4°f.
* Wind from: 270° Speed 06 kn.
Dewpoint: 01° c.
Visibility: 10 Statute Miles.
Clouds: Clear (automated report).

KACY 182354Z 27006KT 10SM CLR 08/01 A3038 RMK AO2 SLP287 T00780011 10133 20078 51012


Wind From 270°
Speed 06 kn.

 
 
jpsmedia.com for Web Design worldairports.se 2018   terms of use